Карточка аэропорта USTR

Внимание!
Информация на этой странице в стадии наполнения.
Если вы не увидели какой-то информации, или заметили неточность - пожалуйста сообщите нам!
Спасибо!
Команда RU-STAFF
Название аэропортаРощино
Название аэропорта (англ.)Roshschino
Превышение378 ft. (115.2 m.)
Координаты57°10.098', 65°19.002'
Высота перехода3000ft
Эшелон переходаQNH⩾1013hPa:FL040; QNH⩾977hPa:FL050; QNH⩽977hPa:FL060
Коды ответчика5101-5137
Зона ОрВДТюмень РПИ (USTV)
Данные METARUSTR 260300Z 04003MPS 360V080 9999 -SHRA SCT007 OVC051CB 08/08 Q1005 R30/290055 R21/290055 TEMPO 36014MPS 2100 -SHRA BKN004 BKN016CB
Проноз погоды (TAF)USTR 260138Z 2603/2703 36006G14MPS 9999 BKN007 BKN020CB TEMPO 2603/2606 03016MPS 2100 -SHRA BKN004 BKN016CB FM260600 01005G14MPS 9999 BKN010 BKN020CB TEMPO 2606/2612 35016MPS 4000 -SHRA FEW006 BKN016CB FM261200 33006G14MPS 9999 SCT020 BECMG 2621/2622 32003G10MPS
NOTAMshow/hide NOTAM
AWOS   TABLE

Информация о ВПП

ВПП Длина ВПП (м.) Покрытие Курс ВПП Частота ILS
033003Асфальтобетон34108.3
122704Асфальтобетон121 
213003Асфальтобетон214110.7
302704Асфальтобетон301 

Диспетчерские позиции

Позывной Наименование органа УВД Частота
USTR_GNDТюмень-Руление119.000
USTR_R_APPТюмень-Круг126.100
USTR_TWRТюмень-Старт118.200



Спутниковое изображение